sensor_id;sensor_type;location;lat;lon;timestamp;temperature;humidity
33594;DHT22;19920;52.242;20.940;2023-03-19T00:00:04;7.70;99.90
33594;DHT22;19920;52.242;20.940;2023-03-19T00:02:34;7.70;99.90
33594;DHT22;19920;52.242;20.940;2023-03-19T00:05:00;7.70;99.90
33594;DHT22;19920;52.242;20.940;2023-03-19T00:07:26;7.60;99.90
33594;DHT22;19920;52.242;20.940;2023-03-19T00:09:51;7.60;99.90
33594;DHT22;19920;52.242;20.940;2023-03-19T00:12:17;7.60;99.90
33594;DHT22;19920;52.242;20.940;2023-03-19T00:14:43;7.70;99.90
33594;DHT22;19920;52.242;20.940;2023-03-19T00:17:08;7.60;99.90
33594;DHT22;19920;52.242;20.940;2023-03-19T00:19:34;7.60;99.90
33594;DHT22;19920;52.242;20.940;2023-03-19T00:22:00;7.70;99.90
33594;DHT22;19920;52.242;20.940;2023-03-19T00:24:26;7.60;99.90
33594;DHT22;19920;52.242;20.940;2023-03-19T00:26:51;7.60;99.90
33594;DHT22;19920;52.242;20.940;2023-03-19T00:29:17;7.50;99.90
33594;DHT22;19920;52.242;20.940;2023-03-19T00:31:43;7.50;99.90
33594;DHT22;19920;52.242;20.940;2023-03-19T00:34:09;7.60;99.90
33594;DHT22;19920;52.242;20.940;2023-03-19T00:36:35;7.50;99.90
33594;DHT22;19920;52.242;20.940;2023-03-19T00:39:02;7.50;99.90
33594;DHT22;19920;52.242;20.940;2023-03-19T00:41:28;7.40;99.90
33594;DHT22;19920;52.242;20.940;2023-03-19T00:43:55;7.30;99.90
33594;DHT22;19920;52.242;20.940;2023-03-19T00:46:22;7.40;99.90
33594;DHT22;19920;52.242;20.940;2023-03-19T00:48:49;7.30;99.90
33594;DHT22;19920;52.242;20.940;2023-03-19T00:51:18;7.30;99.90
33594;DHT22;19920;52.242;20.940;2023-03-19T00:53:44;7.30;99.90
33594;DHT22;19920;52.242;20.940;2023-03-19T00:56:12;7.20;99.90
33594;DHT22;19920;52.242;20.940;2023-03-19T00:58:38;7.20;99.90
33594;DHT22;19920;52.242;20.940;2023-03-19T01:01:06;7.20;99.90
33594;DHT22;19920;52.242;20.940;2023-03-19T01:03:32;7.10;99.90
33594;DHT22;19920;52.242;20.940;2023-03-19T01:05:58;7.10;99.90
33594;DHT22;19920;52.242;20.940;2023-03-19T01:08:24;7.10;99.90
33594;DHT22;19920;52.242;20.940;2023-03-19T01:10:50;7.00;99.90
33594;DHT22;19920;52.242;20.940;2023-03-19T01:13:16;7.10;99.90
33594;DHT22;19920;52.242;20.940;2023-03-19T01:15:42;7.10;99.90
33594;DHT22;19920;52.242;20.940;2023-03-19T01:18:10;7.10;99.90
33594;DHT22;19920;52.242;20.940;2023-03-19T01:20:37;7.10;99.90
33594;DHT22;19920;52.242;20.940;2023-03-19T01:23:03;7.10;99.90
33594;DHT22;19920;52.242;20.940;2023-03-19T01:25:30;7.10;99.90
33594;DHT22;19920;52.242;20.940;2023-03-19T01:27:56;7.10;99.90
33594;DHT22;19920;52.242;20.940;2023-03-19T01:30:21;7.10;99.90
33594;DHT22;19920;52.242;20.940;2023-03-19T01:32:48;7.00;99.90
33594;DHT22;19920;52.242;20.940;2023-03-19T01:35:14;7.00;99.90
33594;DHT22;19920;52.242;20.940;2023-03-19T01:37:40;7.00;99.90
33594;DHT22;19920;52.242;20.940;2023-03-19T01:40:06;7.00;99.90
33594;DHT22;19920;52.242;20.940;2023-03-19T01:42:50;7.00;99.90
33594;DHT22;19920;52.242;20.940;2023-03-19T01:45:29;7.00;99.90
33594;DHT22;19920;52.242;20.940;2023-03-19T01:47:55;7.10;99.90
33594;DHT22;19920;52.242;20.940;2023-03-19T01:50:47;7.10;99.90
33594;DHT22;19920;52.242;20.940;2023-03-19T01:53:16;6.90;99.90
33594;DHT22;19920;52.242;20.940;2023-03-19T01:55:44;6.90;99.90
33594;DHT22;19920;52.242;20.940;2023-03-19T01:58:10;6.90;99.90
33594;DHT22;19920;52.242;20.940;2023-03-19T02:00:37;6.80;99.90
33594;DHT22;19920;52.242;20.940;2023-03-19T02:03:03;6.80;99.90
33594;DHT22;19920;52.242;20.940;2023-03-19T02:05:29;6.90;99.90
33594;DHT22;19920;52.242;20.940;2023-03-19T02:07:58;6.90;99.90
33594;DHT22;19920;52.242;20.940;2023-03-19T02:10:24;6.80;99.90
33594;DHT22;19920;52.242;20.940;2023-03-19T02:12:51;6.80;99.90
33594;DHT22;19920;52.242;20.940;2023-03-19T02:15:17;6.80;99.90
33594;DHT22;19920;52.242;20.940;2023-03-19T02:17:43;6.70;99.90
33594;DHT22;19920;52.242;20.940;2023-03-19T02:20:16;6.70;99.90
33594;DHT22;19920;52.242;20.940;2023-03-19T02:22:47;6.60;99.90
33594;DHT22;19920;52.242;20.940;2023-03-19T02:25:23;6.70;99.90
33594;DHT22;19920;52.242;20.940;2023-03-19T02:27:51;6.60;99.90
33594;DHT22;19920;52.242;20.940;2023-03-19T02:32:48;6.60;99.90
33594;DHT22;19920;52.242;20.940;2023-03-19T02:35:14;6.60;99.90
33594;DHT22;19920;52.242;20.940;2023-03-19T02:37:40;6.60;99.90
33594;DHT22;19920;52.242;20.940;2023-03-19T02:40:20;6.60;99.90
33594;DHT22;19920;52.242;20.940;2023-03-19T02:42:46;6.60;99.90
33594;DHT22;19920;52.242;20.940;2023-03-19T02:45:13;6.50;99.90
33594;DHT22;19920;52.242;20.940;2023-03-19T02:47:39;6.50;99.90
33594;DHT22;19920;52.242;20.940;2023-03-19T02:50:05;6.60;99.90
33594;DHT22;19920;52.242;20.940;2023-03-19T02:52:32;6.70;99.90
33594;DHT22;19920;52.242;20.940;2023-03-19T02:54:58;6.60;99.90
33594;DHT22;19920;52.242;20.940;2023-03-19T02:57:24;6.50;99.90
33594;DHT22;19920;52.242;20.940;2023-03-19T02:59:49;6.40;99.90
33594;DHT22;19920;52.242;20.940;2023-03-19T03:02:15;6.40;99.90
33594;DHT22;19920;52.242;20.940;2023-03-19T03:04:41;6.40;99.90
33594;DHT22;19920;52.242;20.940;2023-03-19T03:07:07;6.40;99.90
33594;DHT22;19920;52.242;20.940;2023-03-19T03:09:33;6.30;99.90
33594;DHT22;19920;52.242;20.940;2023-03-19T03:11:59;6.30;99.90
33594;DHT22;19920;52.242;20.940;2023-03-19T03:14:24;6.30;99.90
33594;DHT22;19920;52.242;20.940;2023-03-19T03:16:50;6.30;99.90
33594;DHT22;19920;52.242;20.940;2023-03-19T03:19:16;6.30;99.90
33594;DHT22;19920;52.242;20.940;2023-03-19T03:21:41;6.30;99.90
33594;DHT22;19920;52.242;20.940;2023-03-19T03:24:07;6.30;99.90
33594;DHT22;19920;52.242;20.940;2023-03-19T03:26:34;6.30;99.90
33594;DHT22;19920;52.242;20.940;2023-03-19T03:29:04;6.30;99.90
33594;DHT22;19920;52.242;20.940;2023-03-19T03:31:29;6.40;99.90
33594;DHT22;19920;52.242;20.940;2023-03-19T03:33:55;6.30;99.90
33594;DHT22;19920;52.242;20.940;2023-03-19T03:36:20;6.40;99.90
33594;DHT22;19920;52.242;20.940;2023-03-19T03:38:46;6.30;99.90
33594;DHT22;19920;52.242;20.940;2023-03-19T03:41:12;6.30;99.90
33594;DHT22;19920;52.242;20.940;2023-03-19T03:43:38;6.20;99.90
33594;DHT22;19920;52.242;20.940;2023-03-19T03:46:04;6.20;99.90
33594;DHT22;19920;52.242;20.940;2023-03-19T03:48:30;6.20;99.90
33594;DHT22;19920;52.242;20.940;2023-03-19T03:50:56;6.10;99.90
33594;DHT22;19920;52.242;20.940;2023-03-19T03:53:21;6.20;99.90
33594;DHT22;19920;52.242;20.940;2023-03-19T03:55:47;6.20;99.90
33594;DHT22;19920;52.242;20.940;2023-03-19T03:58:13;6.20;99.90
33594;DHT22;19920;52.242;20.940;2023-03-19T04:00:39;6.10;99.90
33594;DHT22;19920;52.242;20.940;2023-03-19T04:03:05;6.10;99.90
33594;DHT22;19920;52.242;20.940;2023-03-19T04:05:30;6.10;99.90
33594;DHT22;19920;52.242;20.940;2023-03-19T04:07:56;6.20;99.90
33594;DHT22;19920;52.242;20.940;2023-03-19T04:10:22;6.20;99.90
33594;DHT22;19920;52.242;20.940;2023-03-19T04:12:48;6.20;99.90
33594;DHT22;19920;52.242;20.940;2023-03-19T04:15:14;6.20;99.90
33594;DHT22;19920;52.242;20.940;2023-03-19T04:17:41;6.10;99.90
33594;DHT22;19920;52.242;20.940;2023-03-19T04:20:07;6.10;99.90
33594;DHT22;19920;52.242;20.940;2023-03-19T04:22:33;6.10;99.90
33594;DHT22;19920;52.242;20.940;2023-03-19T04:24:59;6.00;99.90
33594;DHT22;19920;52.242;20.940;2023-03-19T04:27:25;5.90;99.90
33594;DHT22;19920;52.242;20.940;2023-03-19T04:29:50;5.90;99.90
33594;DHT22;19920;52.242;20.940;2023-03-19T04:32:16;5.80;99.90
33594;DHT22;19920;52.242;20.940;2023-03-19T04:34:42;5.70;99.90
33594;DHT22;19920;52.242;20.940;2023-03-19T04:37:08;5.70;99.90
33594;DHT22;19920;52.242;20.940;2023-03-19T04:39:38;5.70;99.90
33594;DHT22;19920;52.242;20.940;2023-03-19T04:42:03;5.70;99.90
33594;DHT22;19920;52.242;20.940;2023-03-19T04:44:30;5.60;99.90
33594;DHT22;19920;52.242;20.940;2023-03-19T04:46:56;5.50;99.90
33594;DHT22;19920;52.242;20.940;2023-03-19T04:49:22;5.50;99.90
33594;DHT22;19920;52.242;20.940;2023-03-19T04:51:49;5.50;99.90
33594;DHT22;19920;52.242;20.940;2023-03-19T04:54:15;5.50;99.90
33594;DHT22;19920;52.242;20.940;2023-03-19T04:56:40;5.50;99.90
33594;DHT22;19920;52.242;20.940;2023-03-19T04:59:06;5.60;99.90
33594;DHT22;19920;52.242;20.940;2023-03-19T05:01:32;5.70;99.90
33594;DHT22;19920;52.242;20.940;2023-03-19T05:03:58;5.60;99.90
33594;DHT22;19920;52.242;20.940;2023-03-19T05:06:24;5.60;99.90
33594;DHT22;19920;52.242;20.940;2023-03-19T05:08:51;5.60;99.90
33594;DHT22;19920;52.242;20.940;2023-03-19T05:11:17;5.80;99.90
33594;DHT22;19920;52.242;20.940;2023-03-19T05:13:43;5.70;99.90
33594;DHT22;19920;52.242;20.940;2023-03-19T05:16:08;5.70;99.90
33594;DHT22;19920;52.242;20.940;2023-03-19T05:18:34;5.70;99.90
33594;DHT22;19920;52.242;20.940;2023-03-19T05:21:00;5.70;99.90
33594;DHT22;19920;52.242;20.940;2023-03-19T05:23:26;5.70;99.90
33594;DHT22;19920;52.242;20.940;2023-03-19T05:25:51;5.80;99.90
33594;DHT22;19920;52.242;20.940;2023-03-19T05:28:17;5.80;99.90
33594;DHT22;19920;52.242;20.940;2023-03-19T05:30:43;5.80;99.90
33594;DHT22;19920;52.242;20.940;2023-03-19T05:33:09;5.90;99.90
33594;DHT22;19920;52.242;20.940;2023-03-19T05:35:36;6.00;99.90
33594;DHT22;19920;52.242;20.940;2023-03-19T05:38:02;6.00;99.90
33594;DHT22;19920;52.242;20.940;2023-03-19T05:40:27;6.00;99.90
33594;DHT22;19920;52.242;20.940;2023-03-19T05:42:53;6.00;99.90
33594;DHT22;19920;52.242;20.940;2023-03-19T05:45:19;6.00;99.90
33594;DHT22;19920;52.242;20.940;2023-03-19T05:47:46;6.10;99.90
33594;DHT22;19920;52.242;20.940;2023-03-19T05:50:13;6.10;99.90
33594;DHT22;19920;52.242;20.940;2023-03-19T05:52:39;6.20;99.90
33594;DHT22;19920;52.242;20.940;2023-03-19T05:55:05;6.30;99.90
33594;DHT22;19920;52.242;20.940;2023-03-19T05:57:31;6.30;99.90
33594;DHT22;19920;52.242;20.940;2023-03-19T05:59:56;6.40;99.90
33594;DHT22;19920;52.242;20.940;2023-03-19T06:02:22;6.50;99.90
33594;DHT22;19920;52.242;20.940;2023-03-19T06:04:48;6.60;99.90
33594;DHT22;19920;52.242;20.940;2023-03-19T06:07:14;6.60;99.90
33594;DHT22;19920;52.242;20.940;2023-03-19T06:09:39;6.80;99.90
33594;DHT22;19920;52.242;20.940;2023-03-19T06:12:06;6.80;99.90
33594;DHT22;19920;52.242;20.940;2023-03-19T06:14:31;6.80;99.90
33594;DHT22;19920;52.242;20.940;2023-03-19T06:16:57;7.00;99.90
33594;DHT22;19920;52.242;20.940;2023-03-19T06:19:23;7.10;99.90
33594;DHT22;19920;52.242;20.940;2023-03-19T06:21:48;7.10;99.90
33594;DHT22;19920;52.242;20.940;2023-03-19T06:24:14;7.10;99.90
33594;DHT22;19920;52.242;20.940;2023-03-19T06:26:40;7.10;99.90
33594;DHT22;19920;52.242;20.940;2023-03-19T06:29:05;7.10;99.90
33594;DHT22;19920;52.242;20.940;2023-03-19T06:31:31;7.10;99.90
33594;DHT22;19920;52.242;20.940;2023-03-19T06:33:57;7.20;99.90
33594;DHT22;19920;52.242;20.940;2023-03-19T06:36:23;7.20;99.90
33594;DHT22;19920;52.242;20.940;2023-03-19T06:38:48;7.40;99.90
33594;DHT22;19920;52.242;20.940;2023-03-19T06:41:14;7.50;99.90
33594;DHT22;19920;52.242;20.940;2023-03-19T06:43:40;7.60;99.90
33594;DHT22;19920;52.242;20.940;2023-03-19T06:46:07;7.80;99.90
33594;DHT22;19920;52.242;20.940;2023-03-19T06:48:33;8.00;99.90
33594;DHT22;19920;52.242;20.940;2023-03-19T06:50:59;8.10;99.90
33594;DHT22;19920;52.242;20.940;2023-03-19T06:53:26;8.30;99.90
33594;DHT22;19920;52.242;20.940;2023-03-19T06:55:52;8.40;99.90
33594;DHT22;19920;52.242;20.940;2023-03-19T06:58:18;8.50;99.90
33594;DHT22;19920;52.242;20.940;2023-03-19T07:00:44;8.60;99.90
33594;DHT22;19920;52.242;20.940;2023-03-19T07:03:10;8.70;99.90
33594;DHT22;19920;52.242;20.940;2023-03-19T07:05:35;8.70;99.90
33594;DHT22;19920;52.242;20.940;2023-03-19T07:08:01;8.70;99.90
33594;DHT22;19920;52.242;20.940;2023-03-19T07:10:27;8.70;99.90
33594;DHT22;19920;52.242;20.940;2023-03-19T07:12:53;8.70;99.90
33594;DHT22;19920;52.242;20.940;2023-03-19T07:15:19;8.70;99.90
33594;DHT22;19920;52.242;20.940;2023-03-19T07:17:48;8.70;99.90
33594;DHT22;19920;52.242;20.940;2023-03-19T07:20:14;8.60;99.90
33594;DHT22;19920;52.242;20.940;2023-03-19T07:22:40;8.70;99.90
33594;DHT22;19920;52.242;20.940;2023-03-19T07:25:06;8.70;99.90
33594;DHT22;19920;52.242;20.940;2023-03-19T07:27:32;8.80;99.90
33594;DHT22;19920;52.242;20.940;2023-03-19T07:29:58;8.80;99.90
33594;DHT22;19920;52.242;20.940;2023-03-19T07:32:23;8.90;99.90
33594;DHT22;19920;52.242;20.940;2023-03-19T07:34:50;9.00;99.90
33594;DHT22;19920;52.242;20.940;2023-03-19T07:37:15;9.10;99.90
33594;DHT22;19920;52.242;20.940;2023-03-19T07:39:41;9.20;99.90
33594;DHT22;19920;52.242;20.940;2023-03-19T07:42:07;9.30;99.90
33594;DHT22;19920;52.242;20.940;2023-03-19T07:44:32;9.40;99.90
33594;DHT22;19920;52.242;20.940;2023-03-19T07:46:58;9.40;99.90
33594;DHT22;19920;52.242;20.940;2023-03-19T07:49:24;9.50;99.90
33594;DHT22;19920;52.242;20.940;2023-03-19T07:51:51;9.60;99.90
33594;DHT22;19920;52.242;20.940;2023-03-19T07:54:17;9.70;99.90
33594;DHT22;19920;52.242;20.940;2023-03-19T07:56:42;9.80;99.90
33594;DHT22;19920;52.242;20.940;2023-03-19T07:59:08;10.00;99.90
33594;DHT22;19920;52.242;20.940;2023-03-19T08:01:34;10.10;99.90
33594;DHT22;19920;52.242;20.940;2023-03-19T08:04:00;10.20;99.90
33594;DHT22;19920;52.242;20.940;2023-03-19T08:06:26;10.40;99.90
33594;DHT22;19920;52.242;20.940;2023-03-19T08:08:52;10.60;99.90
33594;DHT22;19920;52.242;20.940;2023-03-19T08:11:17;10.60;99.90
33594;DHT22;19920;52.242;20.940;2023-03-19T08:13:43;10.60;99.90
33594;DHT22;19920;52.242;20.940;2023-03-19T08:16:09;10.80;99.90
33594;DHT22;19920;52.242;20.940;2023-03-19T08:18:35;10.90;99.90
33594;DHT22;19920;52.242;20.940;2023-03-19T08:21:01;11.10;99.90
33594;DHT22;19920;52.242;20.940;2023-03-19T08:23:26;11.20;99.90
33594;DHT22;19920;52.242;20.940;2023-03-19T08:25:52;11.20;99.90
33594;DHT22;19920;52.242;20.940;2023-03-19T08:28:19;11.30;99.90
33594;DHT22;19920;52.242;20.940;2023-03-19T08:30:45;11.50;99.90
33594;DHT22;19920;52.242;20.940;2023-03-19T08:33:11;11.80;99.90
33594;DHT22;19920;52.242;20.940;2023-03-19T08:35:36;11.70;99.90
33594;DHT22;19920;52.242;20.940;2023-03-19T08:38:02;11.80;99.90
33594;DHT22;19920;52.242;20.940;2023-03-19T08:40:28;11.90;99.90
33594;DHT22;19920;52.242;20.940;2023-03-19T08:42:54;12.10;99.90
33594;DHT22;19920;52.242;20.940;2023-03-19T08:45:20;12.10;99.90
33594;DHT22;19920;52.242;20.940;2023-03-19T08:47:47;12.20;99.90
33594;DHT22;19920;52.242;20.940;2023-03-19T08:50:13;12.20;99.90
33594;DHT22;19920;52.242;20.940;2023-03-19T08:52:38;12.30;99.90
33594;DHT22;19920;52.242;20.940;2023-03-19T08:55:05;12.30;99.90
33594;DHT22;19920;52.242;20.940;2023-03-19T08:57:32;12.40;99.90
33594;DHT22;19920;52.242;20.940;2023-03-19T08:59:57;12.60;99.90
33594;DHT22;19920;52.242;20.940;2023-03-19T09:02:23;12.60;99.90
33594;DHT22;19920;52.242;20.940;2023-03-19T09:04:49;12.70;99.90
33594;DHT22;19920;52.242;20.940;2023-03-19T09:07:15;12.70;99.90
33594;DHT22;19920;52.242;20.940;2023-03-19T09:09:42;12.60;99.90
33594;DHT22;19920;52.242;20.940;2023-03-19T09:12:10;12.70;99.90
33594;DHT22;19920;52.242;20.940;2023-03-19T09:14:37;12.80;99.90
33594;DHT22;19920;52.242;20.940;2023-03-19T09:17:03;12.90;99.90
33594;DHT22;19920;52.242;20.940;2023-03-19T09:19:29;13.10;99.90
33594;DHT22;19920;52.242;20.940;2023-03-19T09:21:55;13.20;99.90
33594;DHT22;19920;52.242;20.940;2023-03-19T09:24:20;13.30;99.90
33594;DHT22;19920;52.242;20.940;2023-03-19T09:26:46;13.40;99.90
33594;DHT22;19920;52.242;20.940;2023-03-19T09:29:12;13.30;99.90
33594;DHT22;19920;52.242;20.940;2023-03-19T09:31:38;13.30;99.90
33594;DHT22;19920;52.242;20.940;2023-03-19T09:34:05;13.40;99.90
33594;DHT22;19920;52.242;20.940;2023-03-19T09:36:32;13.50;99.90
33594;DHT22;19920;52.242;20.940;2023-03-19T09:38:58;13.60;99.90
33594;DHT22;19920;52.242;20.940;2023-03-19T09:44:37;13.50;99.90
33594;DHT22;19920;52.242;20.940;2023-03-19T09:47:21;13.50;99.90
33594;DHT22;19920;52.242;20.940;2023-03-19T09:49:52;13.50;99.90
33594;DHT22;19920;52.242;20.940;2023-03-19T09:52:47;13.70;99.90
33594;DHT22;19920;52.242;20.940;2023-03-19T09:57:48;13.60;99.90
33594;DHT22;19920;52.242;20.940;2023-03-19T10:00:35;13.60;99.90
33594;DHT22;19920;52.242;20.940;2023-03-19T10:16:21;14.20;99.90
33594;DHT22;19920;52.242;20.940;2023-03-19T10:18:50;14.20;99.90
33594;DHT22;19920;52.242;20.940;2023-03-19T10:21:41;14.30;99.90
33594;DHT22;19920;52.242;20.940;2023-03-19T10:24:35;14.20;99.90
33594;DHT22;19920;52.242;20.940;2023-03-19T10:27:22;14.20;99.90
33594;DHT22;19920;52.242;20.940;2023-03-19T10:29:50;14.30;99.90
33594;DHT22;19920;52.242;20.940;2023-03-19T10:32:28;14.30;99.90
33594;DHT22;19920;52.242;20.940;2023-03-19T10:35:01;14.50;99.90
33594;DHT22;19920;52.242;20.940;2023-03-19T10:37:29;14.70;99.90
33594;DHT22;19920;52.242;20.940;2023-03-19T10:39:57;14.90;99.90
33594;DHT22;19920;52.242;20.940;2023-03-19T10:45:27;15.30;99.90
33594;DHT22;19920;52.242;20.940;2023-03-19T10:47:54;15.40;99.90
33594;DHT22;19920;52.242;20.940;2023-03-19T10:50:27;15.60;99.90
33594;DHT22;19920;52.242;20.940;2023-03-19T10:55:32;16.00;99.90
33594;DHT22;19920;52.242;20.940;2023-03-19T10:58:03;16.10;99.90
33594;DHT22;19920;52.242;20.940;2023-03-19T11:00:31;16.20;99.90
33594;DHT22;19920;52.242;20.940;2023-03-19T11:02:58;16.50;99.90
33594;DHT22;19920;52.242;20.940;2023-03-19T11:05:27;16.50;99.90
33594;DHT22;19920;52.242;20.940;2023-03-19T11:08:00;16.60;99.90
33594;DHT22;19920;52.242;20.940;2023-03-19T11:10:30;16.70;99.90
33594;DHT22;19920;52.242;20.940;2023-03-19T11:13:06;16.60;99.90
33594;DHT22;19920;52.242;20.940;2023-03-19T11:15:40;16.80;99.90
33594;DHT22;19920;52.242;20.940;2023-03-19T11:18:18;16.70;99.90
33594;DHT22;19920;52.242;20.940;2023-03-19T11:20:56;16.50;99.90
33594;DHT22;19920;52.242;20.940;2023-03-19T11:23:26;16.10;99.90
33594;DHT22;19920;52.242;20.940;2023-03-19T11:25:53;16.20;99.90
33594;DHT22;19920;52.242;20.940;2023-03-19T11:28:24;16.10;99.90
33594;DHT22;19920;52.242;20.940;2023-03-19T11:31:20;16.10;99.90
33594;DHT22;19920;52.242;20.940;2023-03-19T11:36:29;15.80;99.90
33594;DHT22;19920;52.242;20.940;2023-03-19T11:45:01;16.20;99.90
33594;DHT22;19920;52.242;20.940;2023-03-19T11:47:44;16.20;99.90
33594;DHT22;19920;52.242;20.940;2023-03-19T11:50:39;16.30;99.90
33594;DHT22;19920;52.242;20.940;2023-03-19T12:07:16;17.10;99.90
33594;DHT22;19920;52.242;20.940;2023-03-19T12:10:15;17.30;99.90
33594;DHT22;19920;52.242;20.940;2023-03-19T12:20:36;17.40;99.90
33594;DHT22;19920;52.242;20.940;2023-03-19T12:26:01;17.40;99.90
33594;DHT22;19920;52.242;20.940;2023-03-19T12:31:30;17.20;99.90
33594;DHT22;19920;52.242;20.940;2023-03-19T12:36:37;17.10;99.90
33594;DHT22;19920;52.242;20.940;2023-03-19T12:39:14;17.40;99.90
33594;DHT22;19920;52.242;20.940;2023-03-19T12:41:42;17.50;99.90
33594;DHT22;19920;52.242;20.940;2023-03-19T12:44:27;17.60;99.90
33594;DHT22;19920;52.242;20.940;2023-03-19T12:46:58;17.50;99.90
33594;DHT22;19920;52.242;20.940;2023-03-19T12:49:46;17.40;99.90
33594;DHT22;19920;52.242;20.940;2023-03-19T12:52:40;17.40;99.90
33594;DHT22;19920;52.242;20.940;2023-03-19T12:55:21;17.70;99.90
33594;DHT22;19920;52.242;20.940;2023-03-19T12:57:57;17.80;99.90
33594;DHT22;19920;52.242;20.940;2023-03-19T13:04:00;18.00;99.90
33594;DHT22;19920;52.242;20.940;2023-03-19T13:06:35;18.20;99.90
33594;DHT22;19920;52.242;20.940;2023-03-19T13:09:41;18.30;99.90
33594;DHT22;19920;52.242;20.940;2023-03-19T13:12:24;18.30;99.90
33594;DHT22;19920;52.242;20.940;2023-03-19T13:17:25;18.70;99.90
33594;DHT22;19920;52.242;20.940;2023-03-19T13:19:53;18.70;99.90
33594;DHT22;19920;52.242;20.940;2023-03-19T13:22:33;18.80;99.90
33594;DHT22;19920;52.242;20.940;2023-03-19T13:25:00;19.30;99.90
33594;DHT22;19920;52.242;20.940;2023-03-19T13:27:32;19.30;99.90
33594;DHT22;19920;52.242;20.940;2023-03-19T13:32:42;19.50;99.90
33594;DHT22;19920;52.242;20.940;2023-03-19T13:38:06;19.40;98.80
33594;DHT22;19920;52.242;20.940;2023-03-19T13:46:03;19.10;98.90
33594;DHT22;19920;52.242;20.940;2023-03-19T13:56:16;19.00;98.80
33594;DHT22;19920;52.242;20.940;2023-03-19T13:58:46;19.00;99.90
33594;DHT22;19920;52.242;20.940;2023-03-19T14:03:52;19.40;98.90
33594;DHT22;19920;52.242;20.940;2023-03-19T14:06:39;19.10;99.10
33594;DHT22;19920;52.242;20.940;2023-03-19T14:09:44;18.90;99.40
33594;DHT22;19920;52.242;20.940;2023-03-19T14:17:33;18.60;99.90
33594;DHT22;19920;52.242;20.940;2023-03-19T14:23:10;18.90;99.90
33594;DHT22;19920;52.242;20.940;2023-03-19T14:28:37;19.30;98.20
33594;DHT22;19920;52.242;20.940;2023-03-19T14:32:01;19.60;98.30
33594;DHT22;19920;52.242;20.940;2023-03-19T14:36:40;19.60;97.00
33594;DHT22;19920;52.242;20.940;2023-03-19T14:39:15;19.10;97.50
33594;DHT22;19920;52.242;20.940;2023-03-19T14:41:43;18.80;97.10
33594;DHT22;19920;52.242;20.940;2023-03-19T14:44:35;18.50;97.90
33594;DHT22;19920;52.242;20.940;2023-03-19T14:55:35;18.10;98.10
33594;DHT22;19920;52.242;20.940;2023-03-19T14:58:02;17.90;99.10
33594;DHT22;19920;52.242;20.940;2023-03-19T15:00:38;17.90;98.30
33594;DHT22;19920;52.242;20.940;2023-03-19T15:03:26;17.80;98.10
33594;DHT22;19920;52.242;20.940;2023-03-19T15:06:02;17.70;98.60
33594;DHT22;19920;52.242;20.940;2023-03-19T15:08:33;17.50;98.80
33594;DHT22;19920;52.242;20.940;2023-03-19T15:16:25;17.20;98.50
33594;DHT22;19920;52.242;20.940;2023-03-19T15:18:52;17.10;98.40
33594;DHT22;19920;52.242;20.940;2023-03-19T15:21:19;16.90;98.80
33594;DHT22;19920;52.242;20.940;2023-03-19T15:23:46;16.70;98.40
33594;DHT22;19920;52.242;20.940;2023-03-19T15:26:12;16.60;99.60
33594;DHT22;19920;52.242;20.940;2023-03-19T15:28:51;16.50;99.80
33594;DHT22;19920;52.242;20.940;2023-03-19T15:31:17;16.30;99.00
33594;DHT22;19920;52.242;20.940;2023-03-19T15:33:43;16.20;98.90
33594;DHT22;19920;52.242;20.940;2023-03-19T15:41:13;15.70;99.90
33594;DHT22;19920;52.242;20.940;2023-03-19T15:43:40;15.50;99.90
33594;DHT22;19920;52.242;20.940;2023-03-19T15:46:12;15.40;99.90
33594;DHT22;19920;52.242;20.940;2023-03-19T15:51:09;15.20;99.90
33594;DHT22;19920;52.242;20.940;2023-03-19T15:53:35;15.10;99.90
33594;DHT22;19920;52.242;20.940;2023-03-19T15:56:02;15.00;99.90
33594;DHT22;19920;52.242;20.940;2023-03-19T15:58:31;14.90;99.90
33594;DHT22;19920;52.242;20.940;2023-03-19T16:01:01;14.70;99.90
33594;DHT22;19920;52.242;20.940;2023-03-19T16:03:36;14.50;99.90
33594;DHT22;19920;52.242;20.940;2023-03-19T16:06:05;14.60;99.90
33594;DHT22;19920;52.242;20.940;2023-03-19T16:08:32;14.50;99.90
33594;DHT22;19920;52.242;20.940;2023-03-19T16:11:36;14.40;99.90
33594;DHT22;19920;52.242;20.940;2023-03-19T16:16:34;14.20;99.90
33594;DHT22;19920;52.242;20.940;2023-03-19T16:19:02;14.20;99.90
33594;DHT22;19920;52.242;20.940;2023-03-19T16:21:37;14.10;99.90
33594;DHT22;19920;52.242;20.940;2023-03-19T16:24:14;14.10;99.90
33594;DHT22;19920;52.242;20.940;2023-03-19T16:26:44;14.00;99.90
33594;DHT22;19920;52.242;20.940;2023-03-19T16:31:45;13.80;99.90
33594;DHT22;19920;52.242;20.940;2023-03-19T16:35:23;13.70;99.90
33594;DHT22;19920;52.242;20.940;2023-03-19T16:40:01;13.50;99.90
33594;DHT22;19920;52.242;20.940;2023-03-19T16:42:35;13.30;99.90
33594;DHT22;19920;52.242;20.940;2023-03-19T16:47:47;13.10;99.90
33594;DHT22;19920;52.242;20.940;2023-03-19T16:50:14;13.00;99.90
33594;DHT22;19920;52.242;20.940;2023-03-19T16:52:41;12.90;99.90
33594;DHT22;19920;52.242;20.940;2023-03-19T16:55:25;12.80;99.90
33594;DHT22;19920;52.242;20.940;2023-03-19T16:57:56;12.70;99.90
33594;DHT22;19920;52.242;20.940;2023-03-19T17:00:24;12.60;99.90
33594;DHT22;19920;52.242;20.940;2023-03-19T17:02:51;12.50;99.90
33594;DHT22;19920;52.242;20.940;2023-03-19T17:05:17;12.40;99.90
33594;DHT22;19920;52.242;20.940;2023-03-19T17:07:43;12.30;99.90
33594;DHT22;19920;52.242;20.940;2023-03-19T17:10:13;12.20;99.90
33594;DHT22;19920;52.242;20.940;2023-03-19T17:12:40;12.10;99.90
33594;DHT22;19920;52.242;20.940;2023-03-19T17:17:43;11.90;99.90
33594;DHT22;19920;52.242;20.940;2023-03-19T17:20:15;11.80;99.90
33594;DHT22;19920;52.242;20.940;2023-03-19T17:22:41;11.80;99.90
33594;DHT22;19920;52.242;20.940;2023-03-19T17:25:14;11.70;99.90
33594;DHT22;19920;52.242;20.940;2023-03-19T17:27:43;11.60;99.90
33594;DHT22;19920;52.242;20.940;2023-03-19T17:30:09;11.40;99.90
33594;DHT22;19920;52.242;20.940;2023-03-19T17:32:36;11.30;99.90
33594;DHT22;19920;52.242;20.940;2023-03-19T17:35:02;11.30;99.90
33594;DHT22;19920;52.242;20.940;2023-03-19T17:37:29;11.20;99.90
33594;DHT22;19920;52.242;20.940;2023-03-19T17:39:55;11.20;99.90
33594;DHT22;19920;52.242;20.940;2023-03-19T17:42:23;11.10;99.90
33594;DHT22;19920;52.242;20.940;2023-03-19T17:44:49;11.10;99.90
33594;DHT22;19920;52.242;20.940;2023-03-19T17:47:16;11.10;99.90
33594;DHT22;19920;52.242;20.940;2023-03-19T17:49:42;11.00;99.90
33594;DHT22;19920;52.242;20.940;2023-03-19T17:52:17;11.00;99.90
33594;DHT22;19920;52.242;20.940;2023-03-19T17:54:43;11.00;99.90